Time;durP1;ratioP1;P1;durP2;ratioP2;P2;SDS_P1;SDS_P2;PMS_P1;PMS_P2;Temp;Humidity;BMP_temperature;BMP_pressure;BME280_temperature;BME280_humidity;BME280_pressure;Samples;Min_cycle;Max_cycle;Signal;HPM_P1;HPM_P2
2022/12/15 00:40:41;;;;;;;23.20;14.93;;;-4.10;99.90;;;;;;5071632;28;20518;-56
2022/12/15 00:43:10;;;;;;;24.60;15.13;;;-4.20;99.90;;;;;;5063373;28;20473;-58
2022/12/15 00:48:24;;;;;;;23.33;14.83;;;-4.10;99.90;;;;;;5052122;28;20497;-56
2022/12/15 00:50:51;;;;;;;27.33;15.63;;;-4.00;99.90;;;;;;5051875;28;20528;-56
2022/12/15 01:21:03;;;;;;;25.40;14.63;;;-3.90;99.90;;;;;;5063762;28;20971;-59
2022/12/15 01:23:32;;;;;;;23.57;15.37;;;-4.00;99.90;;;;;;5075180;28;20523;-59
2022/12/15 01:26:01;;;;;;;19.70;13.13;;;-4.10;99.90;;;;;;5075260;28;20468;-59
2022/12/15 01:28:31;;;;;;;23.00;14.30;;;-3.80;99.90;;;;;;5069486;28;20493;-58
2022/12/15 01:30:59;;;;;;;23.03;13.97;;;-3.90;99.90;;;;;;5074735;28;20465;-59
2022/12/15 01:33:27;;;;;;;20.90;13.63;;;-3.80;99.90;;;;;;5081296;28;20475;-56
2022/12/15 01:35:57;;;;;;;25.70;15.97;;;-3.40;99.90;;;;;;5074814;28;20476;-56
2022/12/15 01:38:26;;;;;;;20.67;13.17;;;-3.70;99.90;;;;;;5074652;28;20469;-56
2022/12/15 01:40:56;;;;;;;25.27;16.17;;;-3.60;99.90;;;;;;5065562;28;20461;-56
2022/12/15 01:43:27;;;;;;;22.17;14.83;;;-3.70;99.90;;;;;;5054868;28;20462;-55
2022/12/15 01:46:03;;;;;;;24.50;15.63;;;-3.80;99.90;;;;;;5054924;28;20532;-56
2022/12/15 01:48:42;;;;;;;22.97;14.53;;;-3.70;99.90;;;;;;5054660;28;20977;-56
2022/12/15 01:51:16;;;;;;;22.90;13.93;;;-3.70;99.90;;;;;;5054744;28;20462;-56
2022/12/15 01:53:48;;;;;;;27.87;16.53;;;-3.70;99.90;;;;;;5054151;28;20497;-56
2022/12/15 01:56:17;;;;;;;25.60;15.50;;;-3.70;99.90;;;;;;5056559;28;20976;-56
2022/12/15 01:58:49;;;;;;;25.17;15.53;;;-3.90;99.90;;;;;;5074085;28;20476;-56
2022/12/15 02:01:18;;;;;;;22.80;15.20;;;-3.90;99.90;;;;;;5063649;28;20834;-56
2022/12/15 02:03:48;;;;;;;25.53;15.50;;;-4.00;99.90;;;;;;5080364;28;20480;-56
2022/12/15 02:06:20;;;;;;;26.10;15.60;;;-3.60;99.90;;;;;;5073063;28;20466;-56
2022/12/15 02:08:51;;;;;;;26.23;15.60;;;-3.80;99.90;;;;;;5073999;28;20485;-56
2022/12/15 02:11:44;;;;;;;25.73;15.00;;;-3.90;99.90;;;;;;5074091;28;20464;-56
2022/12/15 02:14:20;;;;;;;25.07;14.60;;;-4.00;99.90;;;;;;5074005;28;20470;-56
2022/12/15 02:17:06;;;;;;;22.57;14.07;;;-4.00;99.90;;;;;;5073862;28;20468;-56
2022/12/15 02:20:05;;;;;;;20.83;13.57;;;-4.00;99.90;;;;;;5074226;28;20469;-55
2022/12/15 02:22:51;;;;;;;24.47;13.93;;;-4.00;99.90;;;;;;5058959;28;20459;-56
2022/12/15 02:25:37;;;;;;;21.87;14.30;;;-4.00;99.90;;;;;;5073825;28;20472;-56
2022/12/15 02:28:10;;;;;;;21.90;13.87;;;-4.00;99.90;;;;;;5072753;28;20484;-56
2022/12/15 02:31:48;;;;;;;26.17;14.93;;;-4.00;99.90;;;;;;5073379;28;20477;-56
2022/12/15 02:33:44;;;;;;;21.07;12.53;;;-4.00;99.90;;;;;;5075543;28;20477;-56
2022/12/15 02:36:18;;;;;;;23.13;13.30;;;-4.00;99.90;;;;;;5073750;28;20522;-56
2022/12/15 02:38:46;;;;;;;23.17;13.83;;;-4.00;99.90;;;;;;5073646;28;20472;-56
2022/12/15 02:41:36;;;;;;;20.63;12.97;;;-4.10;99.90;;;;;;5073336;28;20469;-56
2022/12/15 02:44:10;;;;;;;22.33;13.70;;;-4.10;99.90;;;;;;5053769;28;20806;-56
2022/12/15 02:46:48;;;;;;;21.17;13.33;;;-4.10;99.90;;;;;;5053568;28;20462;-56
2022/12/15 02:49:28;;;;;;;25.10;13.87;;;-3.90;99.90;;;;;;5072496;28;20515;-59
2022/12/15 02:52:09;;;;;;;21.00;12.77;;;-4.00;99.90;;;;;;5073353;28;20473;-59
2022/12/15 02:54:57;;;;;;;19.83;11.90;;;-4.00;99.90;;;;;;5073158;28;20538;-57
2022/12/15 02:57:32;;;;;;;22.67;13.33;;;-4.00;99.90;;;;;;5073039;28;20469;-59
2022/12/15 03:00:22;;;;;;;22.30;13.10;;;-3.90;99.90;;;;;;5069760;28;20466;-58
2022/12/15 03:02:54;;;;;;;25.17;14.27;;;-3.90;99.90;;;;;;5076979;28;20472;-58
2022/12/15 03:05:24;;;;;;;25.33;14.43;;;-4.10;99.90;;;;;;5070779;28;20475;-56
2022/12/15 03:07:53;;;;;;;24.47;14.47;;;-4.00;99.90;;;;;;5070827;28;20485;-56
2022/12/15 03:10:24;;;;;;;22.20;15.10;;;-4.00;99.90;;;;;;5070907;28;20486;-56
2022/12/15 03:12:53;;;;;;;24.53;15.47;;;-4.10;99.90;;;;;;5070828;28;20476;-56
2022/12/15 03:15:22;;;;;;;23.37;13.77;;;-4.10;99.90;;;;;;5070755;28;20971;-56
2022/12/15 03:17:51;;;;;;;25.40;13.43;;;-4.10;99.90;;;;;;5070470;28;20468;-56
2022/12/15 03:20:19;;;;;;;19.40;12.20;;;-4.00;99.90;;;;;;5071125;28;20469;-56
2022/12/15 03:22:47;;;;;;;22.97;14.10;;;-4.00;99.90;;;;;;5061739;28;20478;-56
2022/12/15 03:25:15;;;;;;;23.60;15.37;;;-3.90;99.90;;;;;;5053002;28;20473;-56
2022/12/15 03:27:46;;;;;;;25.33;14.50;;;-4.00;99.90;;;;;;5066461;28;20876;-56
2022/12/15 03:30:14;;;;;;;21.43;13.83;;;-4.10;99.90;;;;;;5064760;28;20462;-56
2022/12/15 03:32:42;;;;;;;23.40;14.27;;;-4.00;99.90;;;;;;5084091;28;20521;-56
2022/12/15 03:35:12;;;;;;;23.47;14.77;;;-4.00;99.90;;;;;;5064675;28;20534;-56
2022/12/15 03:37:41;;;;;;;22.20;14.00;;;-4.10;99.90;;;;;;5072570;28;20457;-56
2022/12/15 03:40:12;;;;;;;22.63;14.20;;;-4.10;99.90;;;;;;5072877;28;20981;-56
2022/12/15 03:42:49;;;;;;;24.53;14.70;;;-4.10;99.90;;;;;;5072935;28;20469;-59
2022/12/15 03:45:18;;;;;;;22.43;13.97;;;-4.10;99.90;;;;;;5069942;28;20468;-58
2022/12/15 03:47:46;;;;;;;21.20;13.90;;;-4.00;99.90;;;;;;5052594;28;20484;-59
2022/12/15 03:50:18;;;;;;;24.50;14.27;;;-4.10;99.90;;;;;;5052574;28;20473;-59
2022/12/15 03:52:51;;;;;;;23.60;13.77;;;-4.10;99.90;;;;;;5052173;28;20954;-58
2022/12/15 03:55:19;;;;;;;20.80;13.63;;;-4.10;99.90;;;;;;5052791;28;20467;-58
2022/12/15 03:57:48;;;;;;;22.33;13.93;;;-4.10;99.90;;;;;;5066609;28;20464;-59
2022/12/15 04:00:17;;;;;;;24.73;14.13;;;-4.10;99.90;;;;;;5072199;28;20871;-58
2022/12/15 04:02:47;;;;;;;20.60;13.37;;;-4.10;99.90;;;;;;5083945;28;20487;-58
2022/12/15 04:05:20;;;;;;;25.87;14.93;;;-4.10;99.90;;;;;;5065491;28;20473;-59
2022/12/15 04:07:49;;;;;;;21.10;13.97;;;-4.10;99.90;;;;;;5072492;28;20478;-58
2022/12/15 04:10:17;;;;;;;22.07;13.93;;;-4.10;99.90;;;;;;5072316;28;20472;-58
2022/12/15 04:12:45;;;;;;;23.20;14.80;;;-4.10;99.90;;;;;;5072545;28;20477;-56
2022/12/15 04:15:13;;;;;;;23.10;14.23;;;-3.90;99.90;;;;;;5072708;28;20465;-56
2022/12/15 04:17:42;;;;;;;25.27;15.07;;;-4.00;99.90;;;;;;5071429;28;20874;-56
2022/12/15 04:20:10;;;;;;;25.77;14.90;;;-3.90;99.90;;;;;;5072119;28;20470;-54
2022/12/15 04:22:42;;;;;;;26.17;15.77;;;-4.00;99.90;;;;;;5058853;28;20999;-56
2022/12/15 05:32:08;;;;;;;20.20;13.33;;;-3.90;99.90;;;;;;5079498;28;20485;-59
2022/12/15 05:34:36;;;;;;;25.27;15.47;;;-3.80;99.90;;;;;;5074656;28;20986;-56
2022/12/15 05:37:05;;;;;;;26.63;15.27;;;-3.90;99.90;;;;;;5074791;28;20960;-56
2022/12/15 05:39:34;;;;;;;26.47;16.10;;;-3.70;99.90;;;;;;5059185;28;20467;-56
2022/12/15 05:42:02;;;;;;;22.87;14.10;;;-3.80;99.90;;;;;;5054523;28;20478;-57
2022/12/15 05:44:31;;;;;;;23.43;15.33;;;-3.70;99.90;;;;;;5063488;28;20507;-56
2022/12/15 05:46:59;;;;;;;24.80;15.60;;;-3.80;99.90;;;;;;5074781;28;20473;-56
2022/12/15 05:49:27;;;;;;;26.57;16.43;;;-3.90;99.90;;;;;;5073770;28;20478;-56
2022/12/15 05:51:56;;;;;;;25.97;15.40;;;-3.90;99.90;;;;;;5074533;28;20477;-57
2022/12/15 05:54:24;;;;;;;24.83;16.30;;;-3.90;99.90;;;;;;5074720;28;20976;-56
2022/12/15 05:56:52;;;;;;;28.47;16.07;;;-3.90;99.90;;;;;;5074627;28;20908;-56
2022/12/15 05:59:22;;;;;;;24.30;14.77;;;-3.80;99.90;;;;;;5074522;28;20471;-57
2022/12/15 06:01:51;;;;;;;31.90;17.40;;;-3.80;99.90;;;;;;5073840;28;20470;-56
2022/12/15 06:04:19;;;;;;;24.53;15.60;;;-3.80;99.90;;;;;;5074532;28;20462;-56
2022/12/15 06:06:47;;;;;;;27.77;16.57;;;-3.80;99.90;;;;;;5074365;28;20543;-56
2022/12/15 06:09:16;;;;;;;25.40;15.63;;;-3.90;99.90;;;;;;5080128;28;20481;-56
2022/12/15 06:11:44;;;;;;;28.23;17.33;;;-3.80;99.90;;;;;;5073818;28;20483;-57
2022/12/15 06:14:12;;;;;;;28.20;16.23;;;-3.80;99.90;;;;;;5077273;28;20463;-55
2022/12/15 06:16:40;;;;;;;23.97;16.13;;;-3.90;99.90;;;;;;5077838;28;20469;-56
2022/12/15 06:19:20;;;;;;;25.67;14.77;;;-4.00;99.90;;;;;;5067214;28;20902;-57
2022/12/15 06:21:48;;;;;;;26.20;15.93;;;-3.80;99.90;;;;;;5067830;28;20995;-56
2022/12/15 06:24:16;;;;;;;31.63;16.83;;;-3.80;99.90;;;;;;5074331;28;20821;-56
2022/12/15 06:26:44;;;;;;;25.63;16.97;;;-3.90;99.90;;;;;;5068175;28;20473;-56
2022/12/15 06:29:14;;;;;;;26.40;16.60;;;-3.90;99.90;;;;;;5073850;28;20867;-56
2022/12/15 06:31:42;;;;;;;26.80;16.60;;;-3.90;99.90;;;;;;5084422;28;20504;-56
2022/12/15 06:34:12;;;;;;;25.90;16.73;;;-3.80;99.90;;;;;;5066161;28;20466;-56
2022/12/15 06:36:42;;;;;;;25.77;16.07;;;-3.90;99.90;;;;;;5083032;28;20484;-56
2022/12/15 06:39:12;;;;;;;28.47;16.90;;;-3.80;99.90;;;;;;5079370;28;20479;-56
2022/12/15 06:41:40;;;;;;;24.03;15.63;;;-3.60;99.90;;;;;;5080445;28;20976;-57
2022/12/15 06:44:13;;;;;;;26.67;16.03;;;-3.70;99.90;;;;;;5073483;28;20523;-56
2022/12/15 06:46:41;;;;;;;26.33;17.00;;;-3.80;99.90;;;;;;5073558;28;20461;-57
2022/12/15 06:49:09;;;;;;;25.63;16.37;;;-3.90;99.90;;;;;;5064970;28;20523;-56
2022/12/15 06:51:38;;;;;;;28.90;16.10;;;-3.80;99.90;;;;;;5073263;28;20794;-57
2022/12/15 06:54:09;;;;;;;24.93;15.40;;;-3.80;99.90;;;;;;5072847;28;20461;-57
2022/12/15 06:56:38;;;;;;;25.80;15.73;;;-3.70;99.90;;;;;;5078585;28;20472;-57
2022/12/15 06:59:07;;;;;;;25.87;16.70;;;-3.80;99.90;;;;;;5080805;28;20530;-57
2022/12/15 07:01:35;;;;;;;27.73;17.33;;;-3.60;99.90;;;;;;5066129;28;20495;-57
2022/12/15 07:04:04;;;;;;;25.50;14.37;;;-3.70;99.90;;;;;;5070123;28;20480;-57
2022/12/15 07:06:36;;;;;;;25.57;14.67;;;-3.70;99.90;;;;;;5067161;28;20465;-57
2022/12/15 07:09:09;;;;;;;24.17;14.63;;;-3.70;99.90;;;;;;5071737;28;20473;-56
2022/12/15 07:11:37;;;;;;;23.20;14.47;;;-3.80;99.90;;;;;;5068503;28;20537;-57
2022/12/15 07:14:05;;;;;;;29.77;16.50;;;-3.60;99.90;;;;;;5070269;28;20987;-57
2022/12/15 07:16:33;;;;;;;27.83;15.50;;;-3.50;99.90;;;;;;5071636;28;20473;-56
2022/12/15 07:19:02;;;;;;;27.37;16.70;;;-3.70;99.90;;;;;;5069850;28;20548;-57
2022/12/15 07:21:30;;;;;;;27.90;16.30;;;-3.70;99.90;;;;;;5070951;28;20999;-57
2022/12/15 07:23:58;;;;;;;26.33;15.80;;;-3.80;99.90;;;;;;5072870;28;20469;-57
2022/12/15 07:26:29;;;;;;;26.07;16.33;;;-3.60;99.90;;;;;;5058992;28;20481;-56
2022/12/15 07:28:57;;;;;;;27.07;16.27;;;-3.70;99.90;;;;;;5046069;28;20963;-56
2022/12/15 07:31:25;;;;;;;28.97;15.93;;;-3.60;99.90;;;;;;5059914;28;20475;-55
2022/12/15 07:33:54;;;;;;;28.17;17.50;;;-3.50;99.90;;;;;;5072255;28;20463;-57
2022/12/15 07:36:22;;;;;;;24.43;15.77;;;-3.50;99.90;;;;;;5072972;28;20461;-57
2022/12/15 07:38:50;;;;;;;21.93;14.67;;;-3.50;99.90;;;;;;5072765;28;20622;-57
2022/12/15 07:41:20;;;;;;;26.70;16.47;;;-3.60;99.90;;;;;;5072950;28;20466;-56
2022/12/15 07:43:49;;;;;;;23.60;15.87;;;-3.60;99.90;;;;;;5072736;28;20975;-56
2022/12/15 07:46:18;;;;;;;23.87;15.37;;;-3.60;99.90;;;;;;5072904;28;20802;-57
2022/12/15 07:48:46;;;;;;;24.53;14.97;;;-3.60;99.90;;;;;;5074022;28;20536;-56
2022/12/15 07:51:19;;;;;;;23.60;14.87;;;-3.60;99.90;;;;;;5072540;28;20997;-57
2022/12/15 07:53:49;;;;;;;24.57;15.17;;;-3.50;99.90;;;;;;5072209;28;20539;-56
2022/12/15 07:56:18;;;;;;;25.13;15.87;;;-3.30;99.90;;;;;;5072517;28;20554;-57
2022/12/15 07:58:46;;;;;;;24.93;14.83;;;-3.10;99.90;;;;;;5072379;28;20568;-57
2022/12/15 08:01:16;;;;;;;24.60;14.70;;;-3.20;99.90;;;;;;5073342;28;20489;-57
2022/12/15 08:03:45;;;;;;;25.23;15.27;;;-3.20;99.90;;;;;;5075724;28;20497;-56
2022/12/15 08:06:14;;;;;;;22.77;15.07;;;-3.20;99.90;;;;;;5075838;28;20493;-57
2022/12/15 08:08:44;;;;;;;27.07;15.80;;;-3.20;99.90;;;;;;5079075;28;20468;-57
2022/12/15 08:11:19;;;;;;;25.67;16.53;;;-3.10;99.90;;;;;;5077666;28;21053;-56
2022/12/15 08:13:48;;;;;;;27.90;16.97;;;-3.20;99.90;;;;;;5075701;28;20457;-56
2022/12/15 08:16:38;;;;;;;22.73;15.47;;;-3.00;99.90;;;;;;5073870;28;20465;-57
2022/12/15 08:19:09;;;;;;;22.20;15.87;;;-3.10;99.90;;;;;;5075942;28;20498;-57
2022/12/15 08:21:39;;;;;;;29.77;15.27;;;-3.10;99.90;;;;;;5075845;28;20480;-57
2022/12/15 08:24:08;;;;;;;24.87;15.93;;;-3.10;99.90;;;;;;5075348;28;20450;-57
2022/12/15 08:26:37;;;;;;;26.53;15.60;;;-3.10;99.90;;;;;;5075841;28;20469;-57
2022/12/15 08:29:07;;;;;;;25.23;16.57;;;-3.00;99.90;;;;;;5075783;28;20469;-55
2022/12/15 08:31:57;;;;;;;26.53;16.67;;;-3.00;99.90;;;;;;5070134;28;20473;-57
2022/12/15 08:34:25;;;;;;;29.60;18.43;;;-3.00;99.90;;;;;;5070404;28;21239;-55
2022/12/15 08:36:54;;;;;;;33.53;19.43;;;-3.00;99.90;;;;;;5068612;28;20476;-56
2022/12/15 08:39:22;;;;;;;31.53;17.60;;;-3.00;99.90;;;;;;5069505;28;20949;-57
2022/12/15 08:41:50;;;;;;;30.03;17.70;;;-2.90;99.90;;;;;;5064871;28;20466;-57
2022/12/15 08:44:18;;;;;;;34.63;19.90;;;-2.90;99.90;;;;;;5065579;28;20477;-57
2022/12/15 08:46:46;;;;;;;32.87;19.70;;;-2.90;99.90;;;;;;5066416;28;20961;-56
2022/12/15 08:49:16;;;;;;;30.37;18.80;;;-2.70;99.90;;;;;;5065063;28;21022;-57
2022/12/15 08:51:49;;;;;;;25.60;16.37;;;-2.80;99.90;;;;;;5064051;28;20488;-57
2022/12/15 08:54:19;;;;;;;25.60;16.33;;;-2.70;99.90;;;;;;5065266;28;20971;-57
2022/12/15 08:56:47;;;;;;;28.10;17.33;;;-2.60;99.90;;;;;;5068079;28;20464;-56
2022/12/15 08:59:15;;;;;;;26.20;16.77;;;-2.50;99.90;;;;;;5070203;28;21037;-57
2022/12/15 09:01:43;;;;;;;28.53;17.37;;;-2.20;99.90;;;;;;5071173;28;20538;-57
2022/12/15 09:04:11;;;;;;;27.63;16.27;;;-2.20;99.90;;;;;;5070014;28;20465;-58
2022/12/15 09:06:41;;;;;;;27.17;16.63;;;-2.20;99.90;;;;;;5067345;28;20483;-57
2022/12/15 09:09:12;;;;;;;24.13;16.03;;;-2.30;99.90;;;;;;5066217;28;20465;-58
2022/12/15 09:11:40;;;;;;;26.53;16.23;;;-2.20;99.90;;;;;;5065273;28;20486;-58
2022/12/15 09:14:09;;;;;;;24.77;16.03;;;-2.00;99.90;;;;;;5064028;28;20974;-58
2022/12/15 09:16:37;;;;;;;27.30;17.03;;;-2.10;99.90;;;;;;5064178;28;20484;-58
2022/12/15 09:19:06;;;;;;;26.30;17.70;;;-2.00;99.90;;;;;;5065711;28;20463;-58
2022/12/15 09:21:34;;;;;;;29.27;19.00;;;-2.00;99.90;;;;;;5063873;28;20458;-57
2022/12/15 09:24:04;;;;;;;29.37;19.27;;;-1.90;99.90;;;;;;5064449;28;20511;-58
2022/12/15 09:26:34;;;;;;;26.60;17.63;;;-2.00;99.90;;;;;;5067604;28;20557;-58
2022/12/15 09:29:02;;;;;;;26.93;17.20;;;-2.10;99.90;;;;;;5069474;28;20527;-58
2022/12/15 09:31:33;;;;;;;24.23;16.67;;;-2.10;99.90;;;;;;5070611;28;20836;-57
2022/12/15 09:34:02;;;;;;;27.97;18.20;;;-2.20;99.90;;;;;;5074181;28;20467;-58
2022/12/15 09:36:32;;;;;;;28.23;18.17;;;-2.00;99.90;;;;;;5075434;28;20474;-58
2022/12/15 09:39:01;;;;;;;28.07;17.97;;;-2.10;99.90;;;;;;5074225;28;20465;-57
2022/12/15 09:41:33;;;;;;;26.37;17.57;;;-2.10;99.90;;;;;;5074007;28;20462;-57
2022/12/15 09:44:04;;;;;;;30.97;19.10;;;-1.90;99.90;;;;;;5074712;28;20473;-57
2022/12/15 09:46:46;;;;;;;30.13;18.90;;;-1.50;99.90;;;;;;5074163;28;20457;-58
2022/12/15 09:49:31;;;;;;;25.87;17.00;;;-1.60;99.90;;;;;;5084641;28;20456;-57
2022/12/15 09:52:04;;;;;;;27.07;18.07;;;-1.70;99.90;;;;;;5094831;28;20801;-58
2022/12/15 09:54:40;;;;;;;25.67;17.23;;;-1.80;99.90;;;;;;5094569;28;20460;-58
2022/12/15 09:57:17;;;;;;;28.93;18.23;;;-1.80;99.90;;;;;;5085777;28;20500;-58
2022/12/15 09:59:57;;;;;;;24.17;17.47;;;-1.80;99.90;;;;;;5079812;28;20465;-57
2022/12/15 10:02:51;;;;;;;26.03;17.00;;;-1.70;99.90;;;;;;5089649;28;20468;-56
2022/12/15 10:05:37;;;;;;;29.03;17.73;;;-1.60;99.90;;;;;;5050659;28;20504;-58
2022/12/15 10:08:30;;;;;;;27.47;17.63;;;-1.50;99.90;;;;;;5069838;28;20882;-56
2022/12/15 10:11:00;;;;;;;28.70;17.73;;;-1.50;99.90;;;;;;5082844;28;20467;-57
2022/12/15 10:13:38;;;;;;;27.30;18.77;;;-1.20;99.90;;;;;;5084683;28;20471;-57
2022/12/15 10:16:18;;;;;;;25.23;18.43;;;-1.40;99.90;;;;;;5087876;28;20471;-58
2022/12/15 10:18:56;;;;;;;30.60;18.93;;;-1.20;99.90;;;;;;5081084;28;20873;-59
2022/12/15 10:21:31;;;;;;;34.83;18.90;;;-1.10;99.90;;;;;;5083491;28;20465;-58
2022/12/15 10:24:11;;;;;;;31.80;18.70;;;-1.00;99.90;;;;;;5086892;28;21566;-58
2022/12/15 10:26:41;;;;;;;28.13;18.80;;;-0.80;99.90;;;;;;5084532;28;20448;-59
2022/12/15 10:29:24;;;;;;;27.97;18.03;;;-0.80;99.90;;;;;;5083421;28;20526;-58
2022/12/15 10:31:55;;;;;;;30.03;18.33;;;-0.80;99.90;;;;;;5076253;28;20478;-58
2022/12/15 10:34:27;;;;;;;27.10;17.23;;;-0.80;99.90;;;;;;5084114;28;20461;-58
2022/12/15 10:36:56;;;;;;;27.00;17.63;;;-0.80;99.90;;;;;;5081746;28;20465;-58
2022/12/15 10:39:37;;;;;;;27.00;17.20;;;-0.80;99.90;;;;;;5077191;28;20461;-56
2022/12/15 10:42:12;;;;;;;24.70;16.77;;;-0.80;99.90;;;;;;5079961;28;20469;-58
2022/12/15 10:44:44;;;;;;;23.93;17.17;;;-0.80;99.90;;;;;;5078685;28;20461;-56
2022/12/15 10:47:21;;;;;;;26.53;17.47;;;-0.70;99.90;;;;;;5075963;28;20464;-58
2022/12/15 10:49:50;;;;;;;27.53;17.97;;;-0.70;99.90;;;;;;5076486;28;20487;-57
2022/12/15 10:52:26;;;;;;;25.37;16.60;;;-0.70;99.90;;;;;;5075759;28;20498;-58
2022/12/15 10:54:55;;;;;;;24.47;16.37;;;-0.80;99.90;;;;;;5078915;28;20513;-57
2022/12/15 10:57:27;;;;;;;24.07;15.60;;;-0.90;99.90;;;;;;5079247;28;20858;-58
2022/12/15 11:00:26;;;;;;;24.87;15.23;;;-0.90;99.90;;;;;;5079725;28;20477;-57
2022/12/15 11:02:54;;;;;;;22.27;15.00;;;-0.90;99.90;;;;;;5049033;28;20481;-58
2022/12/15 11:05:22;;;;;;;20.67;15.37;;;-0.80;99.90;;;;;;5047673;28;20470;-58
2022/12/15 11:07:52;;;;;;;22.47;15.73;;;-0.80;99.90;;;;;;5047750;28;20470;-58
2022/12/15 11:10:23;;;;;;;23.57;17.10;;;-0.60;99.90;;;;;;5047213;28;20478;-58
2022/12/15 11:12:58;;;;;;;27.23;17.13;;;-0.50;99.90;;;;;;5048047;28;20493;-56
2022/12/15 11:15:44;;;;;;;24.67;16.93;;;-0.50;99.90;;;;;;5047547;28;20462;-57
2022/12/15 11:18:36;;;;;;;24.43;17.90;;;-0.30;99.90;;;;;;5047543;28;20557;-58
2022/12/15 11:21:10;;;;;;;23.87;15.73;;;-0.30;99.90;;;;;;5047661;28;20486;-57
2022/12/15 11:23:50;;;;;;;23.47;17.17;;;-0.20;99.90;;;;;;5048023;28;21026;-58
2022/12/15 11:26:29;;;;;;;28.23;16.20;;;0.00;99.90;;;;;;5047249;28;20504;-57
2022/12/15 11:29:01;;;;;;;25.40;16.27;;;0.20;99.90;;;;;;5046671;28;20477;-57
2022/12/15 11:31:37;;;;;;;27.03;16.50;;;0.30;99.90;;;;;;5048252;28;20474;-58
2022/12/15 11:34:12;;;;;;;23.57;15.23;;;0.40;99.90;;;;;;5048084;28;20454;-57
2022/12/15 11:37:00;;;;;;;22.77;14.17;;;0.40;99.90;;;;;;5047014;28;20485;-57
2022/12/15 11:39:39;;;;;;;25.10;14.60;;;0.40;99.90;;;;;;5046007;28;20467;-56
2022/12/15 11:42:14;;;;;;;18.50;12.90;;;0.40;99.90;;;;;;5047572;28;20469;-58
2022/12/15 11:44:49;;;;;;;25.07;15.03;;;0.50;99.90;;;;;;5047472;28;20472;-58
2022/12/15 11:47:26;;;;;;;20.93;14.37;;;0.50;99.90;;;;;;5046874;28;20462;-57
2022/12/15 11:50:16;;;;;;;20.57;14.20;;;0.40;99.90;;;;;;5046947;28;20853;-58
2022/12/15 11:53:00;;;;;;;22.30;13.20;;;0.30;99.90;;;;;;5046550;28;21512;-58
2022/12/15 11:55:37;;;;;;;18.17;12.97;;;0.30;99.90;;;;;;5047382;28;20478;-58
2022/12/15 11:59:15;;;;;;;16.87;12.23;;;0.30;99.90;;;;;;5046808;28;20466;-57
2022/12/15 12:01:59;;;;;;;21.30;12.73;;;0.30;99.90;;;;;;5015084;28;20492;-58
2022/12/15 12:04:42;;;;;;;19.13;13.17;;;0.30;99.90;;;;;;5020260;28;20476;-58
2022/12/15 12:07:18;;;;;;;21.27;12.73;;;0.40;99.90;;;;;;5052776;28;20465;-58
2022/12/15 12:09:56;;;;;;;19.30;11.90;;;0.50;99.90;;;;;;5063509;28;21083;-58
2022/12/15 12:12:30;;;;;;;17.63;12.10;;;0.50;99.90;;;;;;5066578;28;20479;-59
2022/12/15 12:15:18;;;;;;;18.37;12.20;;;0.50;99.90;;;;;;5062960;28;20518;-57
2022/12/15 12:17:50;;;;;;;17.17;12.43;;;0.50;99.90;;;;;;5064075;28;20457;-58
2022/12/15 12:20:23;;;;;;;18.37;11.73;;;0.50;99.90;;;;;;5064009;28;20891;-57
2022/12/15 12:23:01;;;;;;;17.87;12.03;;;0.60;99.90;;;;;;5064334;28;20462;-58
2022/12/15 12:25:31;;;;;;;19.60;11.67;;;0.50;99.90;;;;;;5060038;28;20465;-57
2022/12/15 12:28:02;;;;;;;16.67;12.07;;;0.60;99.90;;;;;;5063339;28;20473;-55
2022/12/15 12:30:38;;;;;;;19.40;12.00;;;0.60;99.90;;;;;;5062183;28;20469;-58
2022/12/15 12:33:16;;;;;;;22.37;11.77;;;0.70;99.90;;;;;;5060817;28;20481;-58
2022/12/15 12:35:51;;;;;;;14.97;11.93;;;0.60;99.90;;;;;;5061047;28;20475;-57
2022/12/15 12:38:24;;;;;;;14.67;10.90;;;0.70;99.90;;;;;;5063972;28;20825;-58
2022/12/15 12:41:02;;;;;;;19.13;11.50;;;0.80;99.90;;;;;;5065150;28;20482;-58
2022/12/15 12:43:33;;;;;;;14.77;10.60;;;0.80;99.90;;;;;;5060515;28;20469;-58
2022/12/15 12:46:09;;;;;;;17.50;11.07;;;0.90;99.90;;;;;;5060103;28;20465;-55
2022/12/15 12:48:41;;;;;;;17.87;10.60;;;0.90;99.90;;;;;;5062559;28;20836;-58
2022/12/15 12:51:26;;;;;;;16.47;11.47;;;0.90;99.90;;;;;;5062247;28;20468;-57
2022/12/15 12:53:55;;;;;;;14.77;10.30;;;0.90;99.90;;;;;;5059413;28;20485;-58
2022/12/15 12:56:31;;;;;;;16.27;10.87;;;1.00;99.90;;;;;;5064259;28;20481;-58
2022/12/15 12:58:59;;;;;;;14.73;9.93;;;0.90;99.90;;;;;;5061712;28;20511;-57
2022/12/15 13:01:32;;;;;;;14.97;9.67;;;1.00;99.90;;;;;;5059091;28;21025;-57
2022/12/15 13:04:12;;;;;;;12.87;10.07;;;1.00;99.90;;;;;;5057252;28;20478;-58
2022/12/15 13:07:02;;;;;;;20.07;10.90;;;1.00;99.90;;;;;;5063109;28;20538;-56
2022/12/15 13:10:01;;;;;;;15.70;10.60;;;1.10;99.90;;;;;;5058337;28;20462;-58
2022/12/15 13:12:36;;;;;;;13.97;9.93;;;1.10;99.90;;;;;;5064188;28;20503;-58
2022/12/15 13:15:36;;;;;;;14.00;9.77;;;1.10;99.90;;;;;;5065296;28;20961;-58
2022/12/15 13:18:11;;;;;;;18.37;11.10;;;1.10;99.90;;;;;;5064120;28;20470;-58
2022/12/15 13:20:40;;;;;;;18.53;10.60;;;1.20;99.90;;;;;;5056880;28;20461;-58
2022/12/15 13:23:40;;;;;;;18.07;10.50;;;1.20;99.90;;;;;;5058485;28;20519;-58
2022/12/15 13:26:17;;;;;;;17.53;10.47;;;1.10;99.90;;;;;;5048400;28;20483;-58
2022/12/15 13:28:50;;;;;;;15.50;10.03;;;1.20;99.90;;;;;;5063944;28;21035;-62
2022/12/15 13:31:35;;;;;;;16.87;10.73;;;1.20;99.90;;;;;;5055842;28;22131;-57
2022/12/15 13:34:20;;;;;;;15.77;10.73;;;1.30;99.90;;;;;;5056904;28;20551;-58
2022/12/15 13:36:56;;;;;;;12.93;9.90;;;1.30;99.90;;;;;;5060742;28;20469;-58
2022/12/15 13:39:59;;;;;;;18.50;10.73;;;1.20;99.90;;;;;;5062650;28;20466;-58
2022/12/15 13:42:30;;;;;;;19.03;11.17;;;1.30;99.90;;;;;;5064786;28;20465;-57
2022/12/15 13:45:43;;;;;;;16.60;10.80;;;1.40;99.90;;;;;;5067359;28;20478;-58
2022/12/15 13:48:30;;;;;;;14.77;9.63;;;1.40;99.90;;;;;;5058466;28;20684;-58
2022/12/15 13:51:05;;;;;;;14.80;10.47;;;1.40;99.90;;;;;;5057440;28;20480;-58
2022/12/15 13:53:40;;;;;;;14.93;10.60;;;1.60;99.90;;;;;;5057260;28;20494;-57
2022/12/15 13:56:38;;;;;;;13.80;10.27;;;1.60;99.90;;;;;;5064952;28;20481;-59
2022/12/15 13:59:16;;;;;;;14.47;10.40;;;1.50;99.90;;;;;;5059172;28;20469;-58
2022/12/15 14:01:50;;;;;;;14.37;9.40;;;1.50;99.90;;;;;;5057781;28;20488;-57
2022/12/15 14:04:20;;;;;;;15.17;10.00;;;1.40;99.90;;;;;;5054818;28;20464;-58
2022/12/15 14:06:51;;;;;;;16.97;10.43;;;1.40;99.90;;;;;;5054732;28;20470;-58
2022/12/15 14:09:24;;;;;;;14.80;9.90;;;1.50;99.90;;;;;;5047353;28;20522;-59
2022/12/15 14:11:53;;;;;;;16.57;10.33;;;1.40;99.90;;;;;;5054375;28;20876;-58
2022/12/15 14:14:27;;;;;;;16.13;10.20;;;1.40;99.90;;;;;;5054069;28;20483;-59
2022/12/15 14:16:59;;;;;;;16.00;10.20;;;1.40;99.90;;;;;;5054279;28;20482;-58
2022/12/15 14:19:35;;;;;;;14.43;9.17;;;1.40;99.90;;;;;;5053576;28;20467;-58
2022/12/15 14:22:23;;;;;;;16.77;10.17;;;1.40;99.90;;;;;;5056251;28;20470;-59
2022/12/15 14:25:02;;;;;;;15.77;10.10;;;1.60;99.90;;;;;;5052052;28;20801;-58
2022/12/15 14:27:33;;;;;;;16.10;10.27;;;1.70;99.90;;;;;;5053006;28;20504;-59
2022/12/15 14:30:13;;;;;;;15.03;9.93;;;1.60;99.90;;;;;;5053625;28;20467;-59
2022/12/15 14:32:44;;;;;;;17.30;11.13;;;1.60;99.90;;;;;;5058116;28;20466;-58
2022/12/15 14:35:14;;;;;;;12.07;9.40;;;1.60;99.90;;;;;;5058205;28;21033;-58
2022/12/15 14:37:43;;;;;;;14.90;10.40;;;1.50;99.90;;;;;;5070108;28;20454;-58
2022/12/15 14:40:15;;;;;;;14.33;10.30;;;1.60;99.90;;;;;;5053432;28;20525;-59
2022/12/15 14:42:46;;;;;;;15.00;10.03;;;1.60;99.90;;;;;;5060737;28;20463;-59
2022/12/15 14:45:19;;;;;;;13.83;10.13;;;1.60;99.90;;;;;;5066808;28;20508;-58
2022/12/15 14:47:53;;;;;;;14.93;10.70;;;1.60;99.90;;;;;;5068086;28;20481;-58
2022/12/15 14:50:46;;;;;;;15.37;10.83;;;1.60;99.90;;;;;;5049458;28;20954;-59
2022/12/15 14:53:17;;;;;;;16.13;10.57;;;1.50;99.90;;;;;;5052875;28;20485;-59
2022/12/15 14:55:45;;;;;;;14.03;10.90;;;1.50;99.90;;;;;;5053012;28;20474;-58
2022/12/15 14:58:31;;;;;;;13.47;10.53;;;1.40;99.90;;;;;;5053204;28;20516;-58
2022/12/15 15:01:02;;;;;;;14.70;10.40;;;1.50;99.90;;;;;;5059699;28;20517;-59
2022/12/15 15:03:37;;;;;;;15.13;10.47;;;1.50;99.90;;;;;;5073905;28;20449;-58
2022/12/15 15:06:14;;;;;;;13.93;11.10;;;1.60;99.90;;;;;;5072513;28;20531;-59
2022/12/15 15:08:45;;;;;;;16.33;10.27;;;1.40;99.90;;;;;;5072302;28;20457;-59
2022/12/15 15:11:25;;;;;;;14.60;10.60;;;1.40;99.90;;;;;;5079309;28;20473;-58
2022/12/15 15:13:57;;;;;;;15.13;10.97;;;1.40;99.90;;;;;;5072272;28;20472;-58
2022/12/15 15:16:26;;;;;;;22.30;16.83;;;1.30;99.90;;;;;;5072566;28;20465;-55
2022/12/15 15:18:56;;;;;;;17.00;11.80;;;1.30;99.90;;;;;;5064683;28;20467;-58
2022/12/15 15:21:26;;;;;;;15.80;11.17;;;1.30;99.90;;;;;;5078207;28;20460;-57